sensor_id;sensor_type;location;lat;lon;timestamp;P1;durP1;ratioP1;P2;durP2;ratioP2
819;SDS011;392;48.838;2.322;2023-01-28T00:01:40;19.17;;;13.87;;
819;SDS011;392;48.838;2.322;2023-01-28T00:04:07;17.20;;;13.57;;
819;SDS011;392;48.838;2.322;2023-01-28T00:06:34;14.87;;;12.07;;
819;SDS011;392;48.838;2.322;2023-01-28T00:09:02;15.90;;;12.87;;
819;SDS011;392;48.838;2.322;2023-01-28T00:11:30;16.33;;;13.17;;
819;SDS011;392;48.838;2.322;2023-01-28T00:13:58;19.03;;;13.87;;
819;SDS011;392;48.838;2.322;2023-01-28T00:16:26;16.53;;;13.30;;
819;SDS011;392;48.838;2.322;2023-01-28T00:18:54;17.47;;;13.57;;
819;SDS011;392;48.838;2.322;2023-01-28T00:21:22;18.10;;;13.23;;
819;SDS011;392;48.838;2.322;2023-01-28T00:23:49;17.80;;;14.07;;
819;SDS011;392;48.838;2.322;2023-01-28T00:26:20;17.10;;;13.17;;
819;SDS011;392;48.838;2.322;2023-01-28T00:28:50;19.57;;;12.67;;
819;SDS011;392;48.838;2.322;2023-01-28T00:31:18;17.90;;;13.00;;
819;SDS011;392;48.838;2.322;2023-01-28T00:33:47;17.17;;;13.30;;
819;SDS011;392;48.838;2.322;2023-01-28T00:36:16;17.17;;;12.70;;
819;SDS011;392;48.838;2.322;2023-01-28T00:38:50;18.83;;;13.27;;
819;SDS011;392;48.838;2.322;2023-01-28T00:41:19;16.70;;;12.70;;
819;SDS011;392;48.838;2.322;2023-01-28T00:43:51;16.40;;;13.17;;
819;SDS011;392;48.838;2.322;2023-01-28T00:46:19;17.17;;;13.17;;
819;SDS011;392;48.838;2.322;2023-01-28T00:48:47;15.87;;;12.97;;
819;SDS011;392;48.838;2.322;2023-01-28T00:51:16;16.47;;;12.67;;
819;SDS011;392;48.838;2.322;2023-01-28T00:53:45;15.23;;;13.00;;
819;SDS011;392;48.838;2.322;2023-01-28T00:56:13;17.57;;;13.00;;
819;SDS011;392;48.838;2.322;2023-01-28T00:58:44;16.40;;;12.20;;
819;SDS011;392;48.838;2.322;2023-01-28T01:01:13;16.37;;;12.90;;
819;SDS011;392;48.838;2.322;2023-01-28T01:03:43;17.80;;;13.70;;
819;SDS011;392;48.838;2.322;2023-01-28T01:06:11;15.27;;;11.68;;
819;SDS011;392;48.838;2.322;2023-01-28T01:08:40;15.23;;;11.30;;
819;SDS011;392;48.838;2.322;2023-01-28T01:11:16;15.95;;;11.90;;
819;SDS011;392;48.838;2.322;2023-01-28T01:13:48;14.50;;;12.10;;
819;SDS011;392;48.838;2.322;2023-01-28T01:16:18;16.20;;;12.45;;
819;SDS011;392;48.838;2.322;2023-01-28T01:18:47;15.45;;;12.10;;
819;SDS011;392;48.838;2.322;2023-01-28T01:21:17;13.45;;;10.90;;
819;SDS011;392;48.838;2.322;2023-01-28T01:23:46;14.60;;;11.60;;
819;SDS011;392;48.838;2.322;2023-01-28T01:26:14;16.63;;;12.13;;
819;SDS011;392;48.838;2.322;2023-01-28T01:28:41;16.05;;;12.63;;
819;SDS011;392;48.838;2.322;2023-01-28T01:31:10;17.17;;;13.30;;
819;SDS011;392;48.838;2.322;2023-01-28T01:33:41;12.57;;;11.23;;
819;SDS011;392;48.838;2.322;2023-01-28T01:36:11;14.60;;;11.93;;
819;SDS011;392;48.838;2.322;2023-01-28T01:38:41;14.25;;;11.80;;
819;SDS011;392;48.838;2.322;2023-01-28T01:41:08;14.70;;;11.37;;
819;SDS011;392;48.838;2.322;2023-01-28T01:43:49;14.27;;;11.63;;
819;SDS011;392;48.838;2.322;2023-01-28T01:46:20;14.68;;;11.52;;
819;SDS011;392;48.838;2.322;2023-01-28T01:48:54;13.88;;;11.50;;
819;SDS011;392;48.838;2.322;2023-01-28T01:51:30;13.38;;;10.55;;
819;SDS011;392;48.838;2.322;2023-01-28T01:53:59;14.48;;;10.93;;
819;SDS011;392;48.838;2.322;2023-01-28T01:56:32;14.40;;;11.10;;
819;SDS011;392;48.838;2.322;2023-01-28T01:59:04;12.03;;;10.10;;
819;SDS011;392;48.838;2.322;2023-01-28T02:01:36;13.45;;;10.90;;
819;SDS011;392;48.838;2.322;2023-01-28T02:04:07;14.97;;;12.03;;
819;SDS011;392;48.838;2.322;2023-01-28T02:06:38;13.25;;;11.27;;
819;SDS011;392;48.838;2.322;2023-01-28T02:09:19;14.25;;;10.95;;
819;SDS011;392;48.838;2.322;2023-01-28T02:11:49;15.20;;;11.10;;
819;SDS011;392;48.838;2.322;2023-01-28T02:14:20;14.27;;;11.30;;
819;SDS011;392;48.838;2.322;2023-01-28T02:16:50;13.40;;;10.30;;
819;SDS011;392;48.838;2.322;2023-01-28T02:19:18;15.13;;;12.30;;
819;SDS011;392;48.838;2.322;2023-01-28T02:22:08;11.70;;;9.90;;
819;SDS011;392;48.838;2.322;2023-01-28T02:25:07;14.63;;;11.65;;
819;SDS011;392;48.838;2.322;2023-01-28T02:28:10;15.55;;;11.32;;
819;SDS011;392;48.838;2.322;2023-01-28T02:30:49;15.40;;;11.63;;
819;SDS011;392;48.838;2.322;2023-01-28T02:33:23;15.35;;;11.38;;
819;SDS011;392;48.838;2.322;2023-01-28T02:35:57;16.80;;;13.10;;
819;SDS011;392;48.838;2.322;2023-01-28T02:38:32;17.17;;;12.10;;
819;SDS011;392;48.838;2.322;2023-01-28T02:41:07;16.60;;;12.50;;
819;SDS011;392;48.838;2.322;2023-01-28T02:43:43;15.93;;;12.07;;
819;SDS011;392;48.838;2.322;2023-01-28T02:46:14;15.98;;;11.95;;
819;SDS011;392;48.838;2.322;2023-01-28T02:49:05;17.92;;;12.35;;
819;SDS011;392;48.838;2.322;2023-01-28T02:54:41;17.90;;;12.40;;
819;SDS011;392;48.838;2.322;2023-01-28T02:57:20;17.52;;;12.82;;
819;SDS011;392;48.838;2.322;2023-01-28T03:00:02;16.45;;;12.60;;
819;SDS011;392;48.838;2.322;2023-01-28T03:02:35;17.52;;;12.25;;
819;SDS011;392;48.838;2.322;2023-01-28T03:05:11;17.35;;;12.65;;
819;SDS011;392;48.838;2.322;2023-01-28T03:07:47;15.57;;;12.30;;
819;SDS011;392;48.838;2.322;2023-01-28T03:10:16;15.68;;;12.32;;
819;SDS011;392;48.838;2.322;2023-01-28T03:12:47;14.93;;;12.00;;
819;SDS011;392;48.838;2.322;2023-01-28T03:15:38;16.15;;;13.32;;
819;SDS011;392;48.838;2.322;2023-01-28T03:18:29;18.58;;;14.40;;
819;SDS011;392;48.838;2.322;2023-01-28T03:21:21;18.20;;;13.38;;
819;SDS011;392;48.838;2.322;2023-01-28T03:24:14;18.65;;;14.50;;
819;SDS011;392;48.838;2.322;2023-01-28T03:27:08;18.98;;;14.10;;
819;SDS011;392;48.838;2.322;2023-01-28T03:30:05;17.60;;;13.67;;
819;SDS011;392;48.838;2.322;2023-01-28T03:32:57;17.27;;;12.60;;
819;SDS011;392;48.838;2.322;2023-01-28T03:35:43;17.30;;;12.57;;
819;SDS011;392;48.838;2.322;2023-01-28T03:38:29;17.10;;;13.25;;
819;SDS011;392;48.838;2.322;2023-01-28T03:40:59;17.98;;;12.40;;
819;SDS011;392;48.838;2.322;2023-01-28T03:43:29;18.15;;;13.13;;
819;SDS011;392;48.838;2.322;2023-01-28T03:45:58;17.13;;;13.48;;
819;SDS011;392;48.838;2.322;2023-01-28T03:48:27;20.25;;;13.13;;
819;SDS011;392;48.838;2.322;2023-01-28T03:50:55;21.98;;;13.63;;
819;SDS011;392;48.838;2.322;2023-01-28T03:53:26;18.45;;;13.35;;
819;SDS011;392;48.838;2.322;2023-01-28T03:55:55;16.42;;;12.40;;
819;SDS011;392;48.838;2.322;2023-01-28T03:58:23;18.67;;;13.32;;
819;SDS011;392;48.838;2.322;2023-01-28T04:01:05;15.52;;;12.00;;
819;SDS011;392;48.838;2.322;2023-01-28T04:03:34;16.00;;;11.90;;
819;SDS011;392;48.838;2.322;2023-01-28T04:06:06;15.87;;;12.83;;
819;SDS011;392;48.838;2.322;2023-01-28T04:09:08;14.35;;;11.13;;
819;SDS011;392;48.838;2.322;2023-01-28T04:11:58;16.13;;;12.23;;
819;SDS011;392;48.838;2.322;2023-01-28T04:14:38;15.17;;;11.80;;
819;SDS011;392;48.838;2.322;2023-01-28T04:17:10;16.43;;;12.00;;
819;SDS011;392;48.838;2.322;2023-01-28T04:19:39;16.58;;;12.15;;
819;SDS011;392;48.838;2.322;2023-01-28T04:22:08;16.90;;;12.90;;
819;SDS011;392;48.838;2.322;2023-01-28T04:24:38;15.57;;;11.52;;
819;SDS011;392;48.838;2.322;2023-01-28T04:27:06;16.27;;;12.10;;
819;SDS011;392;48.838;2.322;2023-01-28T04:29:33;16.98;;;12.90;;
819;SDS011;392;48.838;2.322;2023-01-28T04:32:20;16.67;;;12.25;;
819;SDS011;392;48.838;2.322;2023-01-28T04:35:04;16.92;;;13.30;;
819;SDS011;392;48.838;2.322;2023-01-28T04:37:52;19.45;;;14.18;;
819;SDS011;392;48.838;2.322;2023-01-28T04:40:30;20.15;;;15.15;;
819;SDS011;392;48.838;2.322;2023-01-28T04:43:07;20.60;;;15.43;;
819;SDS011;392;48.838;2.322;2023-01-28T04:45:47;20.20;;;16.05;;
819;SDS011;392;48.838;2.322;2023-01-28T04:48:38;17.70;;;13.82;;
819;SDS011;392;48.838;2.322;2023-01-28T04:51:19;17.40;;;14.35;;
819;SDS011;392;48.838;2.322;2023-01-28T04:54:09;19.45;;;14.60;;
819;SDS011;392;48.838;2.322;2023-01-28T04:56:36;19.67;;;14.57;;
819;SDS011;392;48.838;2.322;2023-01-28T04:59:04;18.30;;;14.07;;
819;SDS011;392;48.838;2.322;2023-01-28T05:01:33;17.70;;;13.47;;
819;SDS011;392;48.838;2.322;2023-01-28T05:04:01;17.47;;;13.23;;
819;SDS011;392;48.838;2.322;2023-01-28T05:06:32;17.67;;;13.20;;
819;SDS011;392;48.838;2.322;2023-01-28T05:09:05;17.47;;;13.53;;
819;SDS011;392;48.838;2.322;2023-01-28T05:11:32;18.10;;;14.13;;
819;SDS011;392;48.838;2.322;2023-01-28T05:14:03;16.03;;;12.17;;
819;SDS011;392;48.838;2.322;2023-01-28T05:16:37;17.00;;;12.37;;
819;SDS011;392;48.838;2.322;2023-01-28T05:19:05;18.70;;;13.25;;
819;SDS011;392;48.838;2.322;2023-01-28T05:21:38;17.58;;;13.25;;
819;SDS011;392;48.838;2.322;2023-01-28T05:24:13;18.50;;;13.52;;
819;SDS011;392;48.838;2.322;2023-01-28T05:26:42;18.80;;;13.48;;
819;SDS011;392;48.838;2.322;2023-01-28T05:29:10;20.35;;;14.57;;
819;SDS011;392;48.838;2.322;2023-01-28T05:31:38;18.88;;;13.95;;
819;SDS011;392;48.838;2.322;2023-01-28T05:34:05;17.63;;;13.43;;
819;SDS011;392;48.838;2.322;2023-01-28T05:36:33;18.50;;;13.40;;
819;SDS011;392;48.838;2.322;2023-01-28T05:39:08;18.27;;;12.73;;
819;SDS011;392;48.838;2.322;2023-01-28T05:41:35;20.13;;;13.63;;
819;SDS011;392;48.838;2.322;2023-01-28T05:44:02;17.38;;;13.15;;
819;SDS011;392;48.838;2.322;2023-01-28T05:46:42;18.50;;;13.90;;
819;SDS011;392;48.838;2.322;2023-01-28T05:49:29;17.02;;;12.95;;
819;SDS011;392;48.838;2.322;2023-01-28T05:52:10;20.13;;;14.00;;
819;SDS011;392;48.838;2.322;2023-01-28T05:54:39;18.63;;;14.20;;
819;SDS011;392;48.838;2.322;2023-01-28T05:57:06;19.80;;;14.23;;
819;SDS011;392;48.838;2.322;2023-01-28T05:59:34;19.02;;;13.95;;
819;SDS011;392;48.838;2.322;2023-01-28T06:02:01;17.58;;;14.13;;
819;SDS011;392;48.838;2.322;2023-01-28T06:04:28;19.87;;;14.17;;
819;SDS011;392;48.838;2.322;2023-01-28T06:06:57;19.10;;;13.18;;
819;SDS011;392;48.838;2.322;2023-01-28T06:09:25;18.80;;;13.88;;
819;SDS011;392;48.838;2.322;2023-01-28T06:11:54;17.73;;;13.30;;
819;SDS011;392;48.838;2.322;2023-01-28T06:14:22;21.20;;;14.73;;
819;SDS011;392;48.838;2.322;2023-01-28T06:17:10;19.60;;;14.10;;
819;SDS011;392;48.838;2.322;2023-01-28T06:19:59;18.83;;;13.52;;
819;SDS011;392;48.838;2.322;2023-01-28T06:22:29;19.08;;;14.15;;
819;SDS011;392;48.838;2.322;2023-01-28T06:24:57;19.95;;;14.38;;
819;SDS011;392;48.838;2.322;2023-01-28T06:27:25;20.10;;;14.68;;
819;SDS011;392;48.838;2.322;2023-01-28T06:29:53;19.67;;;14.32;;
819;SDS011;392;48.838;2.322;2023-01-28T06:32:20;20.27;;;15.35;;
819;SDS011;392;48.838;2.322;2023-01-28T06:34:47;20.13;;;13.87;;
819;SDS011;392;48.838;2.322;2023-01-28T06:37:16;18.98;;;14.20;;
819;SDS011;392;48.838;2.322;2023-01-28T06:39:44;20.00;;;14.07;;
819;SDS011;392;48.838;2.322;2023-01-28T06:42:11;17.80;;;13.90;;
819;SDS011;392;48.838;2.322;2023-01-28T06:44:40;19.30;;;14.80;;
819;SDS011;392;48.838;2.322;2023-01-28T06:47:07;19.33;;;14.60;;
819;SDS011;392;48.838;2.322;2023-01-28T06:49:35;18.52;;;13.57;;
819;SDS011;392;48.838;2.322;2023-01-28T06:52:02;21.02;;;14.20;;
819;SDS011;392;48.838;2.322;2023-01-28T06:54:30;19.08;;;14.73;;
819;SDS011;392;48.838;2.322;2023-01-28T06:56:57;17.55;;;13.48;;
819;SDS011;392;48.838;2.322;2023-01-28T06:59:25;20.23;;;14.65;;
819;SDS011;392;48.838;2.322;2023-01-28T07:01:54;16.92;;;12.90;;
819;SDS011;392;48.838;2.322;2023-01-28T07:04:21;19.45;;;14.07;;
819;SDS011;392;48.838;2.322;2023-01-28T07:06:49;17.20;;;13.20;;
819;SDS011;392;48.838;2.322;2023-01-28T07:09:16;18.05;;;13.23;;
819;SDS011;392;48.838;2.322;2023-01-28T07:11:43;16.27;;;12.82;;
819;SDS011;392;48.838;2.322;2023-01-28T07:14:11;18.25;;;13.60;;
819;SDS011;392;48.838;2.322;2023-01-28T07:16:38;16.67;;;12.95;;
819;SDS011;392;48.838;2.322;2023-01-28T07:19:07;18.83;;;12.90;;
819;SDS011;392;48.838;2.322;2023-01-28T07:21:34;17.65;;;13.07;;
819;SDS011;392;48.838;2.322;2023-01-28T07:24:01;17.63;;;13.15;;
819;SDS011;392;48.838;2.322;2023-01-28T07:26:30;18.85;;;13.75;;
819;SDS011;392;48.838;2.322;2023-01-28T07:28:57;16.40;;;13.05;;
819;SDS011;392;48.838;2.322;2023-01-28T07:31:25;17.00;;;13.05;;
819;SDS011;392;48.838;2.322;2023-01-28T07:33:52;17.30;;;13.23;;
819;SDS011;392;48.838;2.322;2023-01-28T07:36:21;18.65;;;12.88;;
819;SDS011;392;48.838;2.322;2023-01-28T07:38:48;17.23;;;12.93;;
819;SDS011;392;48.838;2.322;2023-01-28T07:41:16;16.20;;;12.43;;
819;SDS011;392;48.838;2.322;2023-01-28T07:43:43;16.80;;;13.17;;
819;SDS011;392;48.838;2.322;2023-01-28T07:46:10;16.30;;;12.70;;
819;SDS011;392;48.838;2.322;2023-01-28T07:48:38;20.23;;;13.82;;
819;SDS011;392;48.838;2.322;2023-01-28T07:51:05;17.67;;;13.17;;
819;SDS011;392;48.838;2.322;2023-01-28T07:53:34;17.67;;;13.40;;
819;SDS011;392;48.838;2.322;2023-01-28T07:56:02;17.40;;;13.05;;
819;SDS011;392;48.838;2.322;2023-01-28T07:58:30;18.50;;;12.90;;
819;SDS011;392;48.838;2.322;2023-01-28T08:01:00;18.17;;;13.30;;
819;SDS011;392;48.838;2.322;2023-01-28T08:03:28;16.90;;;12.75;;
819;SDS011;392;48.838;2.322;2023-01-28T08:05:55;16.92;;;13.82;;
819;SDS011;392;48.838;2.322;2023-01-28T08:08:23;18.47;;;13.57;;
819;SDS011;392;48.838;2.322;2023-01-28T08:10:53;17.42;;;13.43;;
819;SDS011;392;48.838;2.322;2023-01-28T08:13:21;16.73;;;13.00;;
819;SDS011;392;48.838;2.322;2023-01-28T08:15:48;17.47;;;12.43;;
819;SDS011;392;48.838;2.322;2023-01-28T08:18:20;18.80;;;13.50;;
819;SDS011;392;48.838;2.322;2023-01-28T08:20:48;18.30;;;13.43;;
819;SDS011;392;48.838;2.322;2023-01-28T08:23:20;17.00;;;13.30;;
819;SDS011;392;48.838;2.322;2023-01-28T08:25:48;18.20;;;13.10;;
819;SDS011;392;48.838;2.322;2023-01-28T08:28:17;20.07;;;14.03;;
819;SDS011;392;48.838;2.322;2023-01-28T08:30:45;18.80;;;13.87;;
819;SDS011;392;48.838;2.322;2023-01-28T08:33:13;20.90;;;14.90;;
819;SDS011;392;48.838;2.322;2023-01-28T08:35:42;15.00;;;11.40;;
819;SDS011;392;48.838;2.322;2023-01-28T08:38:10;15.10;;;11.53;;
819;SDS011;392;48.838;2.322;2023-01-28T08:40:39;14.23;;;11.60;;
819;SDS011;392;48.838;2.322;2023-01-28T08:43:07;15.80;;;11.90;;
819;SDS011;392;48.838;2.322;2023-01-28T08:45:35;14.43;;;11.27;;
819;SDS011;392;48.838;2.322;2023-01-28T08:48:05;14.27;;;11.07;;
819;SDS011;392;48.838;2.322;2023-01-28T08:50:36;14.98;;;11.88;;
819;SDS011;392;48.838;2.322;2023-01-28T08:53:05;15.10;;;11.70;;
819;SDS011;392;48.838;2.322;2023-01-28T08:55:36;15.93;;;11.98;;
819;SDS011;392;48.838;2.322;2023-01-28T08:58:04;15.23;;;11.90;;
819;SDS011;392;48.838;2.322;2023-01-28T09:00:33;15.68;;;11.45;;
819;SDS011;392;48.838;2.322;2023-01-28T09:03:03;20.77;;;11.75;;
819;SDS011;392;48.838;2.322;2023-01-28T09:05:31;16.55;;;12.07;;
819;SDS011;392;48.838;2.322;2023-01-28T09:07:59;14.88;;;11.93;;
819;SDS011;392;48.838;2.322;2023-01-28T09:10:27;14.77;;;11.55;;
819;SDS011;392;48.838;2.322;2023-01-28T09:12:55;16.90;;;12.50;;
819;SDS011;392;48.838;2.322;2023-01-28T09:15:22;15.70;;;11.80;;
819;SDS011;392;48.838;2.322;2023-01-28T09:17:57;14.10;;;11.30;;
819;SDS011;392;48.838;2.322;2023-01-28T09:20:25;15.18;;;11.20;;
819;SDS011;392;48.838;2.322;2023-01-28T09:22:53;15.82;;;12.38;;
819;SDS011;392;48.838;2.322;2023-01-28T09:25:20;15.57;;;12.05;;
819;SDS011;392;48.838;2.322;2023-01-28T09:27:48;15.20;;;11.93;;
819;SDS011;392;48.838;2.322;2023-01-28T09:30:15;15.00;;;12.15;;
819;SDS011;392;48.838;2.322;2023-01-28T09:32:43;14.15;;;11.48;;
819;SDS011;392;48.838;2.322;2023-01-28T09:35:11;16.90;;;12.32;;
819;SDS011;392;48.838;2.322;2023-01-28T09:37:40;14.33;;;11.60;;
819;SDS011;392;48.838;2.322;2023-01-28T09:40:09;16.70;;;12.00;;
819;SDS011;392;48.838;2.322;2023-01-28T09:42:45;16.45;;;12.73;;
819;SDS011;392;48.838;2.322;2023-01-28T09:45:27;16.45;;;12.07;;
819;SDS011;392;48.838;2.322;2023-01-28T09:47:59;16.50;;;12.95;;
819;SDS011;392;48.838;2.322;2023-01-28T09:50:32;16.65;;;11.60;;
819;SDS011;392;48.838;2.322;2023-01-28T09:53:04;14.75;;;11.32;;
819;SDS011;392;48.838;2.322;2023-01-28T09:55:37;19.27;;;13.80;;
819;SDS011;392;48.838;2.322;2023-01-28T09:58:07;14.88;;;11.70;;
819;SDS011;392;48.838;2.322;2023-01-28T10:00:40;15.60;;;11.85;;
819;SDS011;392;48.838;2.322;2023-01-28T10:03:22;14.45;;;11.38;;
819;SDS011;392;48.838;2.322;2023-01-28T10:06:06;13.98;;;11.52;;
819;SDS011;392;48.838;2.322;2023-01-28T10:08:54;18.55;;;13.48;;
819;SDS011;392;48.838;2.322;2023-01-28T10:15:05;12.65;;;10.35;;
819;SDS011;392;48.838;2.322;2023-01-28T10:18:12;16.00;;;11.82;;
819;SDS011;392;48.838;2.322;2023-01-28T10:20:40;19.10;;;13.95;;
819;SDS011;392;48.838;2.322;2023-01-28T10:23:15;15.45;;;12.15;;
819;SDS011;392;48.838;2.322;2023-01-28T10:25:48;15.43;;;11.75;;
819;SDS011;392;48.838;2.322;2023-01-28T10:28:18;16.58;;;12.48;;
819;SDS011;392;48.838;2.322;2023-01-28T10:30:48;15.07;;;12.40;;
819;SDS011;392;48.838;2.322;2023-01-28T10:33:17;13.95;;;11.80;;
819;SDS011;392;48.838;2.322;2023-01-28T10:35:48;16.20;;;13.18;;
819;SDS011;392;48.838;2.322;2023-01-28T10:38:19;15.30;;;11.57;;
819;SDS011;392;48.838;2.322;2023-01-28T10:40:48;15.82;;;11.95;;
819;SDS011;392;48.838;2.322;2023-01-28T10:43:17;17.95;;;13.68;;
819;SDS011;392;48.838;2.322;2023-01-28T10:45:52;17.10;;;12.80;;
819;SDS011;392;48.838;2.322;2023-01-28T10:48:25;16.90;;;13.13;;
819;SDS011;392;48.838;2.322;2023-01-28T10:51:00;19.08;;;14.55;;
819;SDS011;392;48.838;2.322;2023-01-28T10:53:36;18.10;;;14.15;;
819;SDS011;392;48.838;2.322;2023-01-28T10:56:06;16.85;;;13.65;;
819;SDS011;392;48.838;2.322;2023-01-28T10:58:46;17.40;;;13.48;;
819;SDS011;392;48.838;2.322;2023-01-28T11:01:19;17.63;;;12.88;;
819;SDS011;392;48.838;2.322;2023-01-28T11:03:53;18.05;;;13.45;;
819;SDS011;392;48.838;2.322;2023-01-28T11:06:23;17.38;;;13.50;;
819;SDS011;392;48.838;2.322;2023-01-28T11:08:54;16.48;;;13.73;;
819;SDS011;392;48.838;2.322;2023-01-28T11:11:22;17.63;;;13.10;;
819;SDS011;392;48.838;2.322;2023-01-28T11:13:52;16.23;;;12.80;;
819;SDS011;392;48.838;2.322;2023-01-28T11:16:22;16.60;;;12.85;;
819;SDS011;392;48.838;2.322;2023-01-28T11:18:52;13.82;;;11.80;;
819;SDS011;392;48.838;2.322;2023-01-28T11:21:23;16.10;;;13.40;;
819;SDS011;392;48.838;2.322;2023-01-28T11:23:54;16.05;;;12.68;;
819;SDS011;392;48.838;2.322;2023-01-28T11:26:26;14.77;;;12.50;;
819;SDS011;392;48.838;2.322;2023-01-28T11:28:57;15.90;;;12.50;;
819;SDS011;392;48.838;2.322;2023-01-28T11:31:24;15.80;;;12.47;;
819;SDS011;392;48.838;2.322;2023-01-28T11:33:53;16.33;;;12.60;;
819;SDS011;392;48.838;2.322;2023-01-28T11:36:23;16.23;;;13.10;;
819;SDS011;392;48.838;2.322;2023-01-28T11:38:55;15.05;;;12.13;;
819;SDS011;392;48.838;2.322;2023-01-28T11:41:26;13.82;;;12.13;;
819;SDS011;392;48.838;2.322;2023-01-28T11:43:55;14.05;;;11.50;;
819;SDS011;392;48.838;2.322;2023-01-28T11:49:21;13.57;;;12.13;;
819;SDS011;392;48.838;2.322;2023-01-28T11:52:03;14.90;;;12.52;;
819;SDS011;392;48.838;2.322;2023-01-28T11:54:46;15.43;;;12.10;;
819;SDS011;392;48.838;2.322;2023-01-28T11:57:27;15.30;;;12.57;;
819;SDS011;392;48.838;2.322;2023-01-28T12:00:11;15.37;;;12.67;;
819;SDS011;392;48.838;2.322;2023-01-28T12:02:58;17.58;;;13.18;;
819;SDS011;392;48.838;2.322;2023-01-28T12:05:44;15.40;;;11.70;;
819;SDS011;392;48.838;2.322;2023-01-28T12:08:19;16.10;;;12.00;;
819;SDS011;392;48.838;2.322;2023-01-28T12:11:14;14.23;;;12.23;;
819;SDS011;392;48.838;2.322;2023-01-28T12:14:09;16.67;;;13.10;;
819;SDS011;392;48.838;2.322;2023-01-28T12:16:47;15.70;;;12.53;;
819;SDS011;392;48.838;2.322;2023-01-28T12:19:32;15.10;;;12.87;;
819;SDS011;392;48.838;2.322;2023-01-28T12:22:19;16.27;;;13.10;;
819;SDS011;392;48.838;2.322;2023-01-28T12:25:18;15.90;;;13.10;;
819;SDS011;392;48.838;2.322;2023-01-28T12:27:57;15.90;;;13.30;;
819;SDS011;392;48.838;2.322;2023-01-28T12:30:41;20.27;;;14.40;;
819;SDS011;392;48.838;2.322;2023-01-28T12:33:32;16.73;;;13.73;;
819;SDS011;392;48.838;2.322;2023-01-28T12:36:23;16.52;;;13.35;;
819;SDS011;392;48.838;2.322;2023-01-28T12:39:02;18.08;;;13.88;;
819;SDS011;392;48.838;2.322;2023-01-28T12:41:41;16.88;;;13.32;;
819;SDS011;392;48.838;2.322;2023-01-28T12:44:18;17.02;;;13.02;;
819;SDS011;392;48.838;2.322;2023-01-28T12:46:52;17.70;;;13.75;;
819;SDS011;392;48.838;2.322;2023-01-28T12:49:24;17.40;;;13.13;;
819;SDS011;392;48.838;2.322;2023-01-28T12:52:00;18.57;;;15.07;;
819;SDS011;392;48.838;2.322;2023-01-28T12:54:35;17.85;;;14.55;;
819;SDS011;392;48.838;2.322;2023-01-28T12:57:09;16.10;;;12.27;;
819;SDS011;392;48.838;2.322;2023-01-28T12:59:44;16.87;;;13.00;;
819;SDS011;392;48.838;2.322;2023-01-28T13:02:20;18.87;;;14.00;;
819;SDS011;392;48.838;2.322;2023-01-28T13:04:53;18.55;;;13.93;;
819;SDS011;392;48.838;2.322;2023-01-28T13:07:31;15.65;;;12.65;;
819;SDS011;392;48.838;2.322;2023-01-28T13:10:04;16.53;;;13.23;;
819;SDS011;392;48.838;2.322;2023-01-28T13:12:39;18.27;;;13.95;;
819;SDS011;392;48.838;2.322;2023-01-28T13:15:11;17.27;;;13.55;;
819;SDS011;392;48.838;2.322;2023-01-28T13:17:52;19.10;;;14.75;;
819;SDS011;392;48.838;2.322;2023-01-28T13:20:28;17.33;;;14.00;;
819;SDS011;392;48.838;2.322;2023-01-28T13:23:03;17.95;;;13.30;;
819;SDS011;392;48.838;2.322;2023-01-28T13:25:47;16.65;;;12.30;;
819;SDS011;392;48.838;2.322;2023-01-28T13:28:24;16.30;;;12.87;;
819;SDS011;392;48.838;2.322;2023-01-28T13:31:01;17.75;;;12.25;;
819;SDS011;392;48.838;2.322;2023-01-28T13:33:31;16.30;;;12.18;;
819;SDS011;392;48.838;2.322;2023-01-28T13:36:01;15.85;;;12.20;;
819;SDS011;392;48.838;2.322;2023-01-28T13:38:42;15.60;;;12.10;;
819;SDS011;392;48.838;2.322;2023-01-28T13:41:10;15.90;;;12.17;;
819;SDS011;392;48.838;2.322;2023-01-28T13:43:38;15.27;;;11.40;;
819;SDS011;392;48.838;2.322;2023-01-28T13:46:09;18.27;;;12.48;;
819;SDS011;392;48.838;2.322;2023-01-28T13:48:39;18.67;;;13.25;;
819;SDS011;392;48.838;2.322;2023-01-28T13:51:14;17.40;;;13.30;;
819;SDS011;392;48.838;2.322;2023-01-28T13:53:47;17.15;;;13.20;;
819;SDS011;392;48.838;2.322;2023-01-28T13:56:21;17.13;;;12.75;;
819;SDS011;392;48.838;2.322;2023-01-28T13:59:00;17.40;;;12.60;;
819;SDS011;392;48.838;2.322;2023-01-28T14:01:49;19.88;;;13.25;;
819;SDS011;392;48.838;2.322;2023-01-28T14:04:49;16.33;;;12.45;;
819;SDS011;392;48.838;2.322;2023-01-28T14:07:48;18.50;;;12.13;;
819;SDS011;392;48.838;2.322;2023-01-28T14:10:52;18.00;;;13.00;;
819;SDS011;392;48.838;2.322;2023-01-28T14:13:34;15.68;;;12.00;;
819;SDS011;392;48.838;2.322;2023-01-28T14:16:33;18.08;;;13.45;;
819;SDS011;392;48.838;2.322;2023-01-28T14:19:18;15.32;;;11.95;;
819;SDS011;392;48.838;2.322;2023-01-28T14:21:52;16.83;;;12.50;;
819;SDS011;392;48.838;2.322;2023-01-28T14:24:20;17.08;;;12.18;;
819;SDS011;392;48.838;2.322;2023-01-28T14:26:52;16.27;;;12.00;;
819;SDS011;392;48.838;2.322;2023-01-28T14:29:32;16.40;;;12.75;;
819;SDS011;392;48.838;2.322;2023-01-28T14:32:14;16.60;;;12.18;;
819;SDS011;392;48.838;2.322;2023-01-28T14:34:45;18.60;;;13.37;;
819;SDS011;392;48.838;2.322;2023-01-28T14:37:14;16.27;;;11.75;;
819;SDS011;392;48.838;2.322;2023-01-28T14:39:45;19.70;;;13.00;;
819;SDS011;392;48.838;2.322;2023-01-28T14:42:19;17.83;;;12.38;;
819;SDS011;392;48.838;2.322;2023-01-28T14:44:53;22.48;;;12.55;;
819;SDS011;392;48.838;2.322;2023-01-28T14:47:51;16.70;;;12.40;;
819;SDS011;392;48.838;2.322;2023-01-28T14:50:42;17.52;;;12.68;;
819;SDS011;392;48.838;2.322;2023-01-28T14:53:38;15.68;;;12.27;;
819;SDS011;392;48.838;2.322;2023-01-28T14:56:44;16.25;;;12.90;;
819;SDS011;392;48.838;2.322;2023-01-28T14:59:32;16.25;;;12.45;;
819;SDS011;392;48.838;2.322;2023-01-28T15:02:08;16.25;;;12.07;;
819;SDS011;392;48.838;2.322;2023-01-28T15:04:43;16.63;;;13.10;;
819;SDS011;392;48.838;2.322;2023-01-28T15:07:16;17.52;;;13.25;;
819;SDS011;392;48.838;2.322;2023-01-28T15:09:46;16.77;;;12.20;;
819;SDS011;392;48.838;2.322;2023-01-28T15:12:14;17.35;;;12.40;;
819;SDS011;392;48.838;2.322;2023-01-28T15:14:42;16.35;;;11.90;;
819;SDS011;392;48.838;2.322;2023-01-28T15:17:13;17.35;;;12.70;;
819;SDS011;392;48.838;2.322;2023-01-28T15:19:49;17.05;;;12.40;;
819;SDS011;392;48.838;2.322;2023-01-28T15:22:19;17.33;;;12.88;;
819;SDS011;392;48.838;2.322;2023-01-28T15:24:51;18.33;;;12.52;;
819;SDS011;392;48.838;2.322;2023-01-28T15:27:22;17.38;;;12.32;;
819;SDS011;392;48.838;2.322;2023-01-28T15:29:54;16.05;;;13.00;;
819;SDS011;392;48.838;2.322;2023-01-28T15:32:24;15.32;;;11.70;;
819;SDS011;392;48.838;2.322;2023-01-28T15:34:54;17.27;;;12.60;;
819;SDS011;392;48.838;2.322;2023-01-28T15:37:27;16.20;;;12.18;;
819;SDS011;392;48.838;2.322;2023-01-28T15:40:00;16.85;;;12.35;;
819;SDS011;392;48.838;2.322;2023-01-28T15:42:31;16.48;;;12.52;;
819;SDS011;392;48.838;2.322;2023-01-28T15:44:59;16.77;;;12.48;;
819;SDS011;392;48.838;2.322;2023-01-28T15:47:28;16.58;;;11.80;;
819;SDS011;392;48.838;2.322;2023-01-28T15:50:00;14.43;;;11.32;;
819;SDS011;392;48.838;2.322;2023-01-28T15:52:33;17.33;;;12.30;;
819;SDS011;392;48.838;2.322;2023-01-28T15:55:03;16.77;;;12.43;;
819;SDS011;392;48.838;2.322;2023-01-28T15:57:33;18.42;;;13.15;;
819;SDS011;392;48.838;2.322;2023-01-28T16:00:10;17.13;;;12.40;;
819;SDS011;392;48.838;2.322;2023-01-28T16:02:41;17.05;;;12.38;;
819;SDS011;392;48.838;2.322;2023-01-28T16:05:24;17.23;;;12.55;;